DAL4596 CYQR-CYWG
Flight info
| Callsign | DAL4596 |
|---|---|
| Flight time | N/A |
| Altitude | 30000 |
| Route | CYQR/CYWG FL300 |
| Aircraft | B737/M-SDE2E3FGHIRWXY/LB1D1 |
Departure
| Time | 2026-04-20 18:04 |
|---|---|
| Airport | Regina International Airport (CYQR) |
Arrival
| Time | N/A |
|---|---|
| Airport | Winnipeg / James Armstrong Richardson International Airport (CYWG) |
| Time | Latitude | Longitude | Altitude | Speed | Heading |
|---|---|---|---|---|---|
| 2026-04-20 17:42 | 50.43306 | -104.65659 | 1901 ft | 0 kts | 49° |
| 2026-04-20 17:52 | 50.43299 | -104.65672 | 1890 ft | 2 kts | 49° |
| 2026-04-20 17:52 | 50.43288 | -104.65691 | 1891 ft | 2 kts | 49° |
| 2026-04-20 17:53 | 50.43277 | -104.65711 | 1887 ft | 2 kts | 49° |
| 2026-04-20 17:53 | 50.43270 | -104.65723 | 1892 ft | 0 kts | 49° |
| 2026-04-20 17:58 | 50.43274 | -104.65716 | 1898 ft | 2 kts | 53° |
| 2026-04-20 17:58 | 50.43288 | -104.65713 | 1896 ft | 2 kts | 335° |
| 2026-04-20 17:58 | 50.43291 | -104.65739 | 1891 ft | 3 kts | 259° |
| 2026-04-20 17:59 | 50.43287 | -104.65768 | 1895 ft | 3 kts | 261° |
| 2026-04-20 17:59 | 50.43284 | -104.65804 | 1896 ft | 4 kts | 261° |
| 2026-04-20 17:59 | 50.43296 | -104.65849 | 1892 ft | 5 kts | 320° |
| 2026-04-20 17:59 | 50.43341 | -104.65914 | 1887 ft | 12 kts | 317° |
| 2026-04-20 18:00 | 50.43419 | -104.66026 | 1888 ft | 17 kts | 318° |
| 2026-04-20 18:00 | 50.43504 | -104.66147 | 1891 ft | 16 kts | 318° |
| 2026-04-20 18:00 | 50.43586 | -104.66263 | 1893 ft | 16 kts | 317° |
| 2026-04-20 18:00 | 50.43665 | -104.66372 | 1896 ft | 15 kts | 318° |
| 2026-04-20 18:01 | 50.43747 | -104.66465 | 1902 ft | 14 kts | 318° |
| 2026-04-20 18:01 | 50.43815 | -104.66575 | 1894 ft | 14 kts | 316° |
| 2026-04-20 18:01 | 50.43881 | -104.66676 | 1893 ft | 13 kts | 316° |
| 2026-04-20 18:01 | 50.43947 | -104.66771 | 1887 ft | 13 kts | 317° |
| 2026-04-20 18:02 | 50.44011 | -104.66865 | 1891 ft | 12 kts | 311° |
| 2026-04-20 18:02 | 50.44042 | -104.66986 | 1897 ft | 12 kts | 276° |
| 2026-04-20 18:02 | 50.44047 | -104.67116 | 1901 ft | 12 kts | 271° |
| 2026-04-20 18:02 | 50.44016 | -104.67217 | 1890 ft | 12 kts | 180° |
| 2026-04-20 18:03 | 50.43950 | -104.67140 | 1890 ft | 13 kts | 139° |
| 2026-04-20 18:03 | 50.43767 | -104.66886 | 1897 ft | 69 kts | 139° |
| 2026-04-20 18:03 | 50.43239 | -104.66153 | 1902 ft | 132 kts | 140° |
| 2026-04-20 18:03 | 50.42430 | -104.65018 | 1940 ft | 176 kts | 137° |
| 2026-04-20 18:04 | 50.41481 | -104.63654 | 2274 ft | 193 kts | 138° |
| 2026-04-20 18:04 | 50.40454 | -104.62183 | 2635 ft | 204 kts | 137° |
| 2026-04-20 18:04 | 50.39480 | -104.60520 | 3078 ft | 205 kts | 126° |
| 2026-04-20 18:04 | 50.38844 | -104.58512 | 3407 ft | 210 kts | 101° |
| 2026-04-20 18:05 | 50.38617 | -104.53324 | 3623 ft | 287 kts | 95° |
| 2026-04-20 18:05 | 50.38451 | -104.50207 | 3756 ft | 280 kts | 94° |
| 2026-04-20 18:05 | 50.38313 | -104.47163 | 3416 ft | 277 kts | 94° |
| 2026-04-20 18:06 | 50.38162 | -104.44185 | 3365 ft | 262 kts | 94° |
| 2026-04-20 18:06 | 50.38018 | -104.41358 | 3056 ft | 260 kts | 95° |
| 2026-04-20 18:06 | 50.37858 | -104.38592 | 2970 ft | 249 kts | 95° |
| 2026-04-20 18:06 | 50.37694 | -104.36038 | 3311 ft | 216 kts | 98° |
| 2026-04-20 18:07 | 50.37451 | -104.33770 | 3787 ft | 219 kts | 99° |
| 2026-04-20 18:07 | 50.37162 | -104.31296 | 3760 ft | 253 kts | 101° |
| 2026-04-20 18:07 | 50.36885 | -104.28303 | 3488 ft | 295 kts | 93° |
| 2026-04-20 18:07 | 50.36778 | -104.24931 | 3520 ft | 320 kts | 94° |
| 2026-04-20 18:08 | 50.36627 | -104.21337 | 3824 ft | 338 kts | 93° |
| 2026-04-20 18:08 | 50.36431 | -104.17628 | 4410 ft | 344 kts | 98° |
| 2026-04-20 18:08 | 50.36095 | -104.14015 | 5650 ft | 321 kts | 98° |
| 2026-04-20 18:08 | 50.35797 | -104.10687 | 6298 ft | 294 kts | 97° |
| 2026-04-20 18:09 | 50.35569 | -104.07547 | 6391 ft | 288 kts | 96° |
| 2026-04-20 18:09 | 50.35369 | -104.04444 | 6184 ft | 284 kts | 96° |
| 2026-04-20 18:09 | 50.35236 | -104.02397 | 5823 ft | 288 kts | 95° |
| 2026-04-20 18:09 | 50.35078 | -103.99195 | 4948 ft | 303 kts | 96° |
| 2026-04-20 18:10 | 50.34878 | -103.95850 | 4169 ft | 315 kts | 95° |
| 2026-04-20 18:10 | 50.34637 | -103.92462 | 3556 ft | 308 kts | 97° |
| 2026-04-20 18:10 | 50.34388 | -103.89233 | 3244 ft | 281 kts | 98° |
| 2026-04-20 18:10 | 50.34158 | -103.85274 | 2585 ft | 270 kts | 92° |
| 2026-04-20 18:11 | 50.34106 | -103.82424 | 2345 ft | 256 kts | 90° |
| 2026-04-20 18:11 | 50.34091 | -103.80573 | 2179 ft | 242 kts | 89° |
| 2026-04-20 18:11 | 50.34084 | -103.78309 | 2186 ft | 187 kts | 90° |
| 2026-04-20 18:11 | 50.34076 | -103.76435 | 2162 ft | 166 kts | 90° |
| 2026-04-20 18:12 | 50.34085 | -103.74681 | 2154 ft | 159 kts | 89° |
| 2026-04-20 18:12 | 50.34113 | -103.72993 | 2157 ft | 145 kts | 88° |
| 2026-04-20 18:12 | 50.34142 | -103.71242 | 2172 ft | 182 kts | 89° |
| 2026-04-20 18:12 | 50.34135 | -103.69193 | 2477 ft | 204 kts | 91° |
| 2026-04-20 18:13 | 50.34074 | -103.66884 | 2389 ft | 210 kts | 95° |
| 2026-04-20 18:13 | 50.33949 | -103.64693 | 2224 ft | 192 kts | 95° |
| 2026-04-20 18:13 | 50.33832 | -103.62760 | 2173 ft | 163 kts | 95° |
| 2026-04-20 18:13 | 50.33720 | -103.61214 | 2225 ft | 122 kts | 97° |
| 2026-04-20 18:14 | 50.33610 | -103.60060 | 2120 ft | 91 kts | 99° |
| 2026-04-20 18:14 | 50.33582 | -103.59380 | 2183 ft | 32 kts | 76° |
| 2026-04-20 18:14 | 50.33661 | -103.59177 | 2187 ft | 23 kts | 5° |